createdAt,value
2019-01-27T00:02:34.911Z,4.67
2019-01-27T00:05:42.215Z,4.69
2019-01-27T00:08:49.413Z,4.67
2019-01-27T00:11:56.733Z,4.53
2019-01-27T00:15:05.024Z,4.51
2019-01-27T00:18:21.576Z,4.54
2019-01-27T00:21:28.869Z,4.52
2019-01-27T00:24:36.068Z,4.61
2019-01-27T00:27:52.764Z,4.55
2019-01-27T00:30:59.962Z,4.64
2019-01-27T00:34:16.828Z,4.56
2019-01-27T00:37:24.570Z,4.57
2019-01-27T00:40:31.780Z,4.70
2019-01-27T00:43:39.074Z,4.70
2019-01-27T00:46:46.520Z,4.79
2019-01-27T00:49:53.787Z,4.60
2019-01-27T00:52:59.430Z,4.55
2019-01-27T00:56:06.770Z,4.64
2019-01-27T00:59:13.896Z,4.54
2019-01-27T01:02:21.106Z,4.53
2019-01-27T01:05:28.319Z,4.51
2019-01-27T01:08:35.594Z,4.66
2019-01-27T01:11:42.811Z,4.60
2019-01-27T01:14:50.127Z,4.58
2019-01-27T01:17:57.328Z,4.54
2019-01-27T01:21:04.853Z,4.49
2019-01-27T01:24:12.305Z,4.54
2019-01-27T01:27:28.812Z,4.56
2019-01-27T01:30:36.207Z,4.61
2019-01-27T01:33:52.788Z,4.68
2019-01-27T01:37:00.082Z,4.50
2019-01-27T01:40:17.971Z,4.64
2019-01-27T01:43:25.253Z,4.63
2019-01-27T01:46:32.715Z,4.68
2019-01-27T01:49:39.940Z,4.63
2019-01-27T01:52:47.228Z,4.63
2019-01-27T01:55:54.380Z,4.69
2019-01-27T01:59:01.506Z,4.78
2019-01-27T02:02:08.812Z,4.79
2019-01-27T02:05:16.594Z,4.63
2019-01-27T02:08:23.713Z,4.72
2019-01-27T02:11:30.914Z,4.70
2019-01-27T02:14:38.517Z,4.72
2019-01-27T02:17:46.062Z,4.52
2019-01-27T02:20:53.186Z,4.73
2019-01-27T02:24:10.419Z,4.77
2019-01-27T02:27:16.013Z,4.64
2019-01-27T02:30:32.788Z,4.75
2019-01-27T02:33:49.535Z,4.81
2019-01-27T02:36:56.663Z,4.64
2019-01-27T02:40:13.616Z,4.78
2019-01-27T02:43:30.200Z,4.72
2019-01-27T02:46:47.215Z,4.70
2019-01-27T02:50:03.771Z,4.74
2019-01-27T02:53:11.081Z,4.59
2019-01-27T02:56:27.643Z,4.67
2019-01-27T02:59:44.365Z,4.72
2019-01-27T03:02:51.472Z,4.58
2019-01-27T03:06:14.964Z,4.57
2019-01-27T03:09:41.945Z,4.61
2019-01-27T03:12:49.325Z,4.61
2019-01-27T03:15:56.518Z,4.56
2019-01-27T03:19:14.622Z,4.61
2019-01-27T03:22:22.024Z,4.57
2019-01-27T03:25:38.590Z,4.73
2019-01-27T03:28:45.894Z,4.57
2019-01-27T03:32:02.610Z,4.62
2019-01-27T03:35:10.220Z,4.63
2019-01-27T03:38:26.538Z,4.71
2019-01-27T03:41:33.645Z,4.57
2019-01-27T03:44:41.739Z,4.64
2019-01-27T03:47:49.198Z,4.53
2019-01-27T03:50:55.349Z,4.55
2019-01-27T03:54:02.653Z,4.59
2019-01-27T03:57:19.275Z,4.60
2019-01-27T04:00:26.481Z,4.57
2019-01-27T04:03:33.575Z,4.58
2019-01-27T04:06:40.865Z,4.50
2019-01-27T04:09:57.844Z,4.50
2019-01-27T04:13:14.403Z,4.39
2019-01-27T04:16:21.673Z,4.45
2019-01-27T04:19:28.804Z,4.33
2019-01-27T04:22:35.917Z,4.38
2019-01-27T04:25:43.812Z,4.43
2019-01-27T04:28:51.018Z,4.35
2019-01-27T04:31:58.262Z,4.40
2019-01-27T04:35:08.515Z,4.42
2019-01-27T04:38:24.751Z,4.40
2019-01-27T04:41:32.786Z,4.44
2019-01-27T04:44:39.533Z,4.37
2019-01-27T04:47:47.549Z,4.33
2019-01-27T04:50:54.725Z,4.43
2019-01-27T04:54:02.041Z,4.21
2019-01-27T04:57:09.275Z,4.28
2019-01-27T05:00:18.522Z,4.27
2019-01-27T05:03:49.393Z,4.16
2019-01-27T05:06:56.856Z,4.11
2019-01-27T05:10:05.068Z,4.14
2019-01-27T05:13:12.437Z,4.18
2019-01-27T05:16:19.774Z,4.14
2019-01-27T05:19:26.909Z,4.20
2019-01-27T05:22:34.296Z,4.19
2019-01-27T05:25:41.614Z,4.17
2019-01-27T05:28:48.744Z,4.06
2019-01-27T05:31:56.069Z,4.06
2019-01-27T05:35:12.923Z,4.06
2019-01-27T05:38:29.552Z,4.07
2019-01-27T05:41:36.745Z,4.06
2019-01-27T05:44:53.459Z,4.13
2019-01-27T05:48:00.601Z,4.20
2019-01-27T05:51:07.719Z,4.09
2019-01-27T05:54:14.842Z,4.07
2019-01-27T05:57:21.257Z,4.14
2019-01-27T06:00:35.156Z,4.18
2019-01-27T06:03:42.378Z,4.13
2019-01-27T06:06:50.055Z,4.04
2019-01-27T06:09:57.342Z,4.05
2019-01-27T06:13:04.615Z,4.02
2019-01-27T06:16:11.738Z,3.90
2019-01-27T06:19:18.931Z,3.98
2019-01-27T06:22:26.124Z,4.05
2019-01-27T06:25:33.327Z,3.92
2019-01-27T06:28:40.473Z,3.93
2019-01-27T06:31:47.770Z,3.98
2019-01-27T06:34:55.068Z,4.12
2019-01-27T06:38:02.203Z,3.93
2019-01-27T06:41:09.405Z,3.90
2019-01-27T06:44:16.586Z,3.87
2019-01-27T06:47:24.954Z,3.93
2019-01-27T06:50:32.159Z,3.95
2019-01-27T06:53:39.371Z,3.94
2019-01-27T06:56:46.513Z,3.97
2019-01-27T07:00:22.820Z,3.95
2019-01-27T07:03:53.276Z,3.88
2019-01-27T07:07:07.673Z,4.02
2019-01-27T07:10:33.864Z,3.97
2019-01-27T07:13:58.378Z,3.96
2019-01-27T07:17:29.431Z,4.01
2019-01-27T07:20:45.917Z,3.96
2019-01-27T07:24:31.901Z,4.02
2019-01-27T07:27:58.279Z,3.95
2019-01-27T07:31:43.039Z,3.96
2019-01-27T07:35:27.370Z,4.00
2019-01-27T07:38:59.568Z,4.04
2019-01-27T07:42:41.254Z,3.93
2019-01-27T07:45:57.162Z,3.95
2019-01-27T07:49:46.139Z,4.02
2019-01-27T07:53:03.019Z,3.92
2019-01-27T07:56:29.161Z,4.07
2019-01-27T07:59:58.391Z,3.95
2019-01-27T08:03:23.550Z,3.96
2019-01-27T08:06:36.599Z,4.04
2019-01-27T08:10:11.199Z,4.04
2019-01-27T08:13:43.671Z,4.20
2019-01-27T08:17:22.543Z,4.23
2019-01-27T08:20:36.693Z,4.09
2019-01-27T08:24:01.685Z,4.09
2019-01-27T08:27:26.359Z,4.21
2019-01-27T08:30:51.599Z,4.14
2019-01-27T08:34:28.230Z,4.18
2019-01-27T08:37:54.754Z,4.17
2019-01-27T08:41:09.213Z,4.23
2019-01-27T08:44:35.549Z,4.19
2019-01-27T08:47:42.076Z,4.15
2019-01-27T08:50:49.224Z,4.20
2019-01-27T08:53:56.333Z,4.14
2019-01-27T08:57:03.677Z,4.18
2019-01-27T09:00:17.106Z,4.06
2019-01-27T09:03:32.645Z,4.20
2019-01-27T09:07:29.973Z,4.13
2019-01-27T09:10:59.422Z,4.34
2019-01-27T09:14:25.663Z,4.27
2019-01-27T09:17:50.664Z,4.28
2019-01-27T09:21:13.889Z,4.22
2019-01-27T09:24:31.613Z,4.29
2019-01-27T09:28:04.175Z,4.28
2019-01-27T09:31:46.594Z,4.45
2019-01-27T09:35:34.493Z,4.42
2019-01-27T09:39:20.571Z,4.52
2019-01-27T09:42:55.417Z,4.44
2019-01-27T09:46:21.730Z,4.40
2019-01-27T09:49:53.663Z,4.35
2019-01-27T09:53:14.108Z,4.40
2019-01-27T09:56:40.272Z,4.31
2019-01-27T10:00:05.034Z,4.35
2019-01-27T10:03:31.907Z,4.46
2019-01-27T10:06:56.864Z,4.52
2019-01-27T10:10:22.657Z,4.57
2019-01-27T10:13:40.667Z,4.48
2019-01-27T10:17:11.282Z,4.51
2019-01-27T10:20:37.587Z,4.46
2019-01-27T10:24:03.070Z,4.66
2019-01-27T10:27:45.182Z,4.76
2019-01-27T10:31:14.893Z,4.85
2019-01-27T10:34:31.605Z,4.82
2019-01-27T10:37:54.040Z,4.79
2019-01-27T10:41:16.088Z,4.73
2019-01-27T10:44:35.977Z,4.74
2019-01-27T10:47:55.428Z,4.71
2019-01-27T10:51:24.639Z,4.81
2019-01-27T10:55:03.305Z,4.89
2019-01-27T10:58:32.075Z,4.80
2019-01-27T11:02:25.643Z,4.89
2019-01-27T11:06:16.858Z,4.87
2019-01-27T11:09:44.003Z,4.89
2019-01-27T11:13:29.917Z,5.05
2019-01-27T11:16:59.187Z,5.14
2019-01-27T11:20:40.159Z,4.94
2019-01-27T11:23:57.739Z,4.95
2019-01-27T11:27:34.997Z,4.94
2019-01-27T11:31:00.295Z,4.88
2019-01-27T11:34:44.649Z,5.09
2019-01-27T11:38:28.700Z,5.01
2019-01-27T11:42:23.469Z,4.90
2019-01-27T11:45:52.553Z,4.84
2019-01-27T11:49:05.930Z,4.84
2019-01-27T11:52:17.464Z,4.91
2019-01-27T11:55:34.313Z,5.00
2019-01-27T11:58:51.007Z,5.01
2019-01-27T12:01:58.216Z,5.12
2019-01-27T12:05:07.715Z,5.12
2019-01-27T12:08:14.835Z,5.02
2019-01-27T12:11:22.071Z,5.02
2019-01-27T12:14:29.345Z,4.97
2019-01-27T12:17:36.567Z,4.96
2019-01-27T12:20:43.786Z,5.06
2019-01-27T12:23:51.002Z,5.07
2019-01-27T12:26:58.627Z,5.06
2019-01-27T12:30:07.146Z,5.10
2019-01-27T12:33:14.346Z,5.23
2019-01-27T12:36:21.543Z,5.16
2019-01-27T12:39:28.690Z,5.27
2019-01-27T12:42:36.011Z,5.20
2019-01-27T12:45:43.606Z,5.23
2019-01-27T12:48:50.670Z,5.18
2019-01-27T12:51:57.854Z,5.22
2019-01-27T12:55:05.671Z,5.28
2019-01-27T12:58:22.179Z,5.27
2019-01-27T13:01:29.593Z,5.35
2019-01-27T13:04:46.140Z,5.50
2019-01-27T13:07:53.349Z,5.34
2019-01-27T13:11:16.531Z,5.36
2019-01-27T13:14:23.882Z,5.31
2019-01-27T13:17:31.378Z,5.37
2019-01-27T13:20:38.586Z,5.32
2019-01-27T13:23:45.785Z,5.38
2019-01-27T13:26:53.147Z,5.52
2019-01-27T13:30:00.309Z,5.46
2019-01-27T13:33:07.576Z,5.45
2019-01-27T13:36:14.942Z,5.47
2019-01-27T13:39:22.723Z,5.54
2019-01-27T13:42:39.275Z,5.50
2019-01-27T13:45:56.509Z,5.46
2019-01-27T13:49:03.813Z,5.49
2019-01-27T13:52:11.113Z,5.55
2019-01-27T13:55:20.592Z,5.54
2019-01-27T13:58:28.082Z,5.51
2019-01-27T14:01:35.319Z,5.43
2019-01-27T14:04:51.924Z,5.54
2019-01-27T14:07:59.149Z,5.55
2019-01-27T14:11:06.531Z,5.45
2019-01-27T14:14:14.363Z,5.60
2019-01-27T14:17:21.686Z,5.59
2019-01-27T14:20:29.039Z,5.59
2019-01-27T14:23:36.251Z,5.57
2019-01-27T14:26:43.381Z,5.47
2019-01-27T14:29:53.961Z,5.50
2019-01-27T14:33:01.163Z,5.58
2019-01-27T14:36:08.469Z,5.48
2019-01-27T14:39:15.680Z,5.37
2019-01-27T14:42:23.783Z,5.48
2019-01-27T14:45:41.979Z,5.46
2019-01-27T14:48:50.154Z,5.50
2019-01-27T14:51:56.638Z,5.59
2019-01-27T14:55:04.947Z,5.45
2019-01-27T14:58:21.570Z,5.49
2019-01-27T15:01:28.707Z,5.40
2019-01-27T15:04:36.103Z,5.41
2019-01-27T15:07:52.637Z,5.48
2019-01-27T15:10:59.857Z,5.47
2019-01-27T15:14:16.698Z,5.56
2019-01-27T15:17:33.423Z,5.57
2019-01-27T15:20:52.920Z,5.50
2019-01-27T15:24:00.128Z,5.40
2019-01-27T15:27:07.395Z,5.44
2019-01-27T15:30:17.877Z,5.28
2019-01-27T15:33:25.229Z,5.36
2019-01-27T15:36:32.442Z,5.35
2019-01-27T15:39:39.600Z,5.24
2019-01-27T15:42:47.147Z,5.21
2019-01-27T15:46:03.839Z,5.24
2019-01-27T15:49:11.065Z,5.25
2019-01-27T15:52:27.843Z,5.25
2019-01-27T15:55:35.094Z,5.20
2019-01-27T15:58:40.805Z,5.39
2019-01-27T16:01:57.317Z,5.35
2019-01-27T16:05:07.108Z,5.26
2019-01-27T16:08:14.297Z,5.29
2019-01-27T16:11:21.537Z,5.29
2019-01-27T16:14:28.660Z,5.40
2019-01-27T16:17:35.874Z,5.42
2019-01-27T16:20:43.165Z,5.35
2019-01-27T16:23:53.804Z,5.45
2019-01-27T16:27:01.128Z,5.39
2019-01-27T16:30:29.712Z,5.43
2019-01-27T16:34:21.897Z,5.31
2019-01-27T16:37:29.127Z,5.37
2019-01-27T16:40:39.696Z,5.39
2019-01-27T16:43:45.492Z,5.36
2019-01-27T16:46:52.862Z,5.17
2019-01-27T16:50:12.440Z,5.32
2019-01-27T16:53:19.658Z,5.36
2019-01-27T16:56:26.960Z,5.45
2019-01-27T16:59:34.165Z,5.38
2019-01-27T17:02:41.401Z,5.46
2019-01-27T17:05:48.924Z,5.28
2019-01-27T17:09:09.203Z,5.35
2019-01-27T17:12:16.582Z,5.31
2019-01-27T17:15:22.178Z,5.37
2019-01-27T17:18:29.334Z,5.36
2019-01-27T17:21:36.583Z,5.33
2019-01-27T17:24:43.736Z,5.35
2019-01-27T17:27:51.108Z,5.47
2019-01-27T17:30:58.503Z,5.46
2019-01-27T17:34:06.288Z,5.31
2019-01-27T17:37:13.383Z,5.29
2019-01-27T17:40:21.020Z,5.30
2019-01-27T17:43:26.769Z,5.24
2019-01-27T17:46:34.172Z,5.23
2019-01-27T17:49:41.449Z,5.26
2019-01-27T17:52:49.257Z,5.30
2019-01-27T17:55:56.499Z,5.31
2019-01-27T17:59:22.967Z,5.35
2019-01-27T18:02:45.664Z,5.30
2019-01-27T18:06:02.339Z,5.32
2019-01-27T18:09:25.314Z,5.33
2019-01-27T18:12:59.126Z,5.38
2019-01-27T18:16:19.295Z,5.35
2019-01-27T18:19:35.870Z,5.32
2019-01-27T18:22:52.783Z,5.30
2019-01-27T18:26:00.045Z,5.23
2019-01-27T18:29:07.294Z,5.25
2019-01-27T18:32:14.778Z,5.29
2019-01-27T18:35:31.137Z,5.22
2019-01-27T18:38:38.436Z,5.33
2019-01-27T18:41:45.631Z,5.22
2019-01-27T18:44:53.609Z,5.27
2019-01-27T18:48:00.973Z,5.37
2019-01-27T18:51:08.230Z,5.35
2019-01-27T18:54:37.193Z,5.33
2019-01-27T18:58:26.691Z,5.32
2019-01-27T19:01:51.668Z,5.23
2019-01-27T19:05:20.684Z,5.24
2019-01-27T19:08:40.688Z,5.30
2019-01-27T19:11:57.818Z,5.24
2019-01-27T19:15:27.129Z,5.41
2019-01-27T19:18:53.250Z,5.35
2019-01-27T19:22:11.055Z,5.32
2019-01-27T19:26:10.181Z,5.31
2019-01-27T19:29:54.871Z,5.29
2019-01-27T19:33:12.709Z,5.24
2019-01-27T19:36:42.012Z,5.28
2019-01-27T19:40:07.354Z,5.31
2019-01-27T19:43:48.752Z,5.35
2019-01-27T19:47:46.688Z,5.24
2019-01-27T19:51:12.906Z,5.13
2019-01-27T19:54:38.134Z,5.29
2019-01-27T19:58:03.092Z,5.28
2019-01-27T20:01:28.077Z,5.34
2019-01-27T20:05:16.457Z,5.38
2019-01-27T20:08:40.508Z,5.36
2019-01-27T20:12:05.456Z,5.30
2019-01-27T20:16:03.802Z,5.37
2019-01-27T20:19:32.897Z,5.37
2019-01-27T20:23:19.088Z,5.49
2019-01-27T20:26:48.160Z,5.39
2019-01-27T20:30:32.599Z,5.40
2019-01-27T20:34:01.864Z,5.29
2019-01-27T20:37:17.682Z,5.24
2019-01-27T20:40:56.072Z,5.13
2019-01-27T20:44:44.665Z,5.15
2019-01-27T20:48:13.842Z,5.06
2019-01-27T20:51:30.660Z,5.00
2019-01-27T20:54:56.936Z,5.12
2019-01-27T20:58:39.438Z,5.15
2019-01-27T21:02:04.681Z,5.13
2019-01-27T21:06:00.574Z,5.10
2019-01-27T21:09:34.669Z,4.90
2019-01-27T21:12:57.836Z,4.88
2019-01-27T21:16:27.149Z,5.00
2019-01-27T21:19:57.406Z,5.03
2019-01-27T21:23:04.685Z,5.11
2019-01-27T21:26:11.869Z,5.00
2019-01-27T21:29:19.007Z,5.10
2019-01-27T21:32:26.263Z,5.12
2019-01-27T21:35:33.467Z,5.02
2019-01-27T21:38:40.833Z,4.99
2019-01-27T21:41:47.964Z,5.00
2019-01-27T21:44:55.177Z,4.88
2019-01-27T21:48:02.582Z,4.87
2019-01-27T21:51:09.798Z,4.89
2019-01-27T21:54:16.987Z,4.79
2019-01-27T21:57:24.127Z,4.89
2019-01-27T22:00:31.459Z,4.90
2019-01-27T22:03:38.593Z,4.84
2019-01-27T22:06:45.903Z,4.85
2019-01-27T22:09:53.096Z,4.82
2019-01-27T22:13:00.480Z,4.75
2019-01-27T22:16:21.042Z,4.73
2019-01-27T22:19:37.683Z,4.69
2019-01-27T22:22:45.085Z,4.68
2019-01-27T22:26:01.727Z,4.72
2019-01-27T22:29:18.403Z,4.63
2019-01-27T22:32:25.545Z,4.61
2019-01-27T22:35:32.728Z,4.60
2019-01-27T22:38:39.937Z,4.57
2019-01-27T22:41:47.137Z,4.57
2019-01-27T22:44:54.460Z,4.46
2019-01-27T22:48:01.708Z,4.54
2019-01-27T22:51:08.963Z,4.45
2019-01-27T22:54:16.176Z,4.47
2019-01-27T22:57:32.842Z,4.47
2019-01-27T23:01:03.830Z,4.42
2019-01-27T23:04:11.038Z,4.46
2019-01-27T23:07:18.356Z,4.35
2019-01-27T23:10:25.471Z,4.33
2019-01-27T23:13:32.790Z,4.33
2019-01-27T23:16:40.007Z,4.33
2019-01-27T23:19:47.144Z,4.28
2019-01-27T23:22:54.455Z,4.26
2019-01-27T23:26:01.738Z,4.14
2019-01-27T23:29:18.445Z,4.21
2019-01-27T23:32:25.645Z,4.19
2019-01-27T23:35:32.876Z,4.01
2019-01-27T23:38:40.161Z,3.94
2019-01-27T23:41:56.768Z,3.96
2019-01-27T23:45:04.370Z,3.85
2019-01-27T23:48:22.109Z,3.93
2019-01-27T23:51:29.560Z,3.95
2019-01-27T23:54:36.986Z,3.99
2019-01-27T23:57:53.627Z,3.93
